createdAt,value
2017-10-08T00:00:13.726Z,13.40
2017-10-08T00:02:41.285Z,13.40
2017-10-08T00:05:08.789Z,13.40
2017-10-08T00:07:36.321Z,13.40
2017-10-08T00:10:04.606Z,13.40
2017-10-08T00:12:32.115Z,13.30
2017-10-08T00:14:59.627Z,13.30
2017-10-08T00:17:27.138Z,13.30
2017-10-08T00:19:54.669Z,13.30
2017-10-08T00:22:22.173Z,13.30
2017-10-08T00:24:49.687Z,13.30
2017-10-08T00:27:17.195Z,13.20
2017-10-08T00:29:45.498Z,13.30
2017-10-08T00:32:13.025Z,13.20
2017-10-08T00:34:40.550Z,13.20
2017-10-08T00:37:08.050Z,13.30
2017-10-08T00:39:35.602Z,13.20
2017-10-08T00:42:03.110Z,13.20
2017-10-08T00:44:30.634Z,13.20
2017-10-08T00:46:58.898Z,13.20
2017-10-08T00:49:26.417Z,13.20
2017-10-08T00:51:53.918Z,13.20
2017-10-08T00:54:21.450Z,13.20
2017-10-08T00:56:48.960Z,13.20
2017-10-08T00:59:17.266Z,13.20
2017-10-08T01:01:44.779Z,13.20
2017-10-08T01:04:13.066Z,13.20
2017-10-08T01:06:41.322Z,13.20
2017-10-08T01:09:08.822Z,13.20
2017-10-08T01:11:36.342Z,13.20
2017-10-08T01:14:03.834Z,13.20
2017-10-08T01:16:31.428Z,13.20
2017-10-08T01:18:59.018Z,13.10
2017-10-08T01:21:26.542Z,13.10
2017-10-08T01:23:54.070Z,13.00
2017-10-08T01:26:22.349Z,12.90
2017-10-08T01:28:49.851Z,12.90
2017-10-08T01:31:17.385Z,12.80
2017-10-08T01:33:44.891Z,12.70
2017-10-08T01:36:12.405Z,12.70
2017-10-08T01:38:39.922Z,12.60
2017-10-08T01:41:07.454Z,12.50
2017-10-08T01:43:34.993Z,12.50
2017-10-08T01:46:02.512Z,12.50
2017-10-08T01:48:30.788Z,12.40
2017-10-08T01:50:59.132Z,12.40
2017-10-08T01:53:26.634Z,12.30
2017-10-08T01:55:54.158Z,12.30
2017-10-08T01:58:21.654Z,12.30
2017-10-08T02:00:49.182Z,12.30
2017-10-08T02:03:16.690Z,12.30
2017-10-08T02:05:44.431Z,12.30
2017-10-08T02:08:12.698Z,12.20
2017-10-08T02:10:42.031Z,12.20
2017-10-08T02:13:09.533Z,12.20
2017-10-08T02:15:37.050Z,12.20
2017-10-08T02:18:04.554Z,12.10
2017-10-08T02:20:32.089Z,12.10
2017-10-08T02:22:59.590Z,12.00
2017-10-08T02:25:27.882Z,12.00
2017-10-08T02:27:55.398Z,12.00
2017-10-08T02:30:22.924Z,12.00
2017-10-08T02:32:50.431Z,12.00
2017-10-08T02:35:17.945Z,12.00
2017-10-08T02:37:45.444Z,11.90
2017-10-08T02:40:13.027Z,11.90
2017-10-08T02:42:41.388Z,11.90
2017-10-08T02:45:08.942Z,11.90
2017-10-08T02:47:36.455Z,11.90
2017-10-08T02:50:03.950Z,11.80
2017-10-08T02:52:31.474Z,11.80
2017-10-08T02:54:58.976Z,11.90
2017-10-08T02:57:26.499Z,11.90
2017-10-08T02:59:53.996Z,11.90
2017-10-08T03:02:21.511Z,11.90
2017-10-08T03:04:49.019Z,11.80
2017-10-08T03:07:16.532Z,11.80
2017-10-08T03:09:44.035Z,11.80
2017-10-08T03:12:11.627Z,11.80
2017-10-08T03:14:39.138Z,11.70
2017-10-08T03:17:06.664Z,11.70
2017-10-08T03:19:34.271Z,11.60
2017-10-08T03:22:01.781Z,11.60
2017-10-08T03:24:29.409Z,11.60
2017-10-08T03:26:57.697Z,11.40
2017-10-08T03:29:25.979Z,11.40
2017-10-08T03:31:54.270Z,11.40
2017-10-08T03:34:21.778Z,11.40
2017-10-08T03:36:49.289Z,11.40
2017-10-08T03:39:16.801Z,11.30
2017-10-08T03:41:44.310Z,11.30
2017-10-08T03:44:11.806Z,11.30
2017-10-08T03:46:39.331Z,11.30
2017-10-08T03:49:06.830Z,11.30
2017-10-08T03:51:35.110Z,11.30
2017-10-08T03:54:02.674Z,11.30
2017-10-08T03:56:30.194Z,11.20
2017-10-08T03:58:57.709Z,11.30
2017-10-08T04:01:26.055Z,11.30
2017-10-08T04:03:53.774Z,11.30
2017-10-08T04:06:21.290Z,11.30
2017-10-08T04:08:48.802Z,11.30
2017-10-08T04:11:16.397Z,11.30
2017-10-08T04:13:43.898Z,11.30
2017-10-08T04:16:11.428Z,11.30
2017-10-08T04:18:38.938Z,11.40
2017-10-08T04:21:06.474Z,11.40
2017-10-08T04:23:34.750Z,11.40
2017-10-08T04:26:03.026Z,11.40
2017-10-08T04:28:31.302Z,11.40
2017-10-08T04:30:59.587Z,11.40
2017-10-08T04:33:27.094Z,11.30
2017-10-08T04:35:54.623Z,11.40
2017-10-08T04:38:22.136Z,11.40
2017-10-08T04:40:49.657Z,11.40
2017-10-08T04:43:17.160Z,11.40
2017-10-08T04:45:44.677Z,11.40
2017-10-08T04:48:12.186Z,11.40
2017-10-08T04:50:40.463Z,11.40
2017-10-08T04:53:08.754Z,11.30
2017-10-08T04:55:37.025Z,11.30
2017-10-08T04:58:05.310Z,11.40
2017-10-08T05:00:32.802Z,11.30
2017-10-08T05:03:00.426Z,11.40
2017-10-08T05:05:27.936Z,11.40
2017-10-08T05:07:56.252Z,11.50
2017-10-08T05:10:23.754Z,11.50
2017-10-08T05:12:51.296Z,11.50
2017-10-08T05:15:18.896Z,11.60
2017-10-08T05:17:47.181Z,11.60
2017-10-08T05:20:14.746Z,11.60
2017-10-08T05:22:42.266Z,11.60
2017-10-08T05:25:09.759Z,11.60
2017-10-08T05:27:37.274Z,11.60
2017-10-08T05:30:04.804Z,11.60
2017-10-08T05:32:33.094Z,11.70
2017-10-08T05:35:00.661Z,11.70
2017-10-08T05:37:28.194Z,11.70
2017-10-08T05:39:55.690Z,11.70
2017-10-08T05:42:23.219Z,11.70
2017-10-08T05:44:50.742Z,11.70
2017-10-08T05:47:18.296Z,11.70
2017-10-08T05:49:46.593Z,11.70
2017-10-08T05:52:14.270Z,11.70
2017-10-08T05:54:41.769Z,11.70
2017-10-08T05:57:09.298Z,11.70
2017-10-08T05:59:36.798Z,11.70
2017-10-08T06:02:04.322Z,11.70
2017-10-08T06:04:31.831Z,11.70
2017-10-08T06:06:59.365Z,11.70
2017-10-08T06:09:26.874Z,11.80
2017-10-08T06:11:55.167Z,11.80
2017-10-08T06:14:22.676Z,11.80
2017-10-08T06:16:50.190Z,11.90
2017-10-08T06:19:17.706Z,11.90
2017-10-08T06:21:45.206Z,11.80
2017-10-08T06:24:12.734Z,11.80
2017-10-08T06:26:41.029Z,11.90
2017-10-08T06:29:08.556Z,11.90
2017-10-08T06:31:36.107Z,11.90
2017-10-08T06:34:03.667Z,11.90
2017-10-08T06:36:31.186Z,11.90
2017-10-08T06:38:58.699Z,11.90
2017-10-08T06:41:26.201Z,11.90
2017-10-08T06:43:53.716Z,11.90
2017-10-08T06:46:21.218Z,12.00
2017-10-08T06:48:48.735Z,12.00
2017-10-08T06:51:16.234Z,12.00
2017-10-08T06:53:43.765Z,12.00
2017-10-08T06:56:11.254Z,11.90
2017-10-08T06:58:38.801Z,12.00
2017-10-08T07:01:06.361Z,11.90
2017-10-08T07:03:33.888Z,12.00
2017-10-08T07:06:01.417Z,12.00
2017-10-08T07:08:29.737Z,12.00
2017-10-08T07:10:57.229Z,12.00
2017-10-08T07:13:24.778Z,12.00
2017-10-08T07:15:52.270Z,12.00
2017-10-08T07:18:20.549Z,12.00
2017-10-08T07:20:48.075Z,12.00
2017-10-08T07:23:15.574Z,12.00
2017-10-08T07:25:43.085Z,12.10
2017-10-08T07:28:11.366Z,12.20
2017-10-08T07:30:39.642Z,12.10
2017-10-08T07:33:07.139Z,12.10
2017-10-08T07:35:34.738Z,12.20
2017-10-08T07:38:02.250Z,12.20
2017-10-08T07:40:29.779Z,12.20
2017-10-08T07:42:59.057Z,12.30
2017-10-08T07:45:26.593Z,12.30
2017-10-08T07:47:54.110Z,12.30
2017-10-08T07:50:21.633Z,12.40
2017-10-08T07:52:49.129Z,12.40
2017-10-08T07:55:16.702Z,12.50
2017-10-08T07:57:44.206Z,12.50
2017-10-08T08:00:11.748Z,12.60
2017-10-08T08:02:39.251Z,12.70
2017-10-08T08:05:07.539Z,12.70
2017-10-08T08:07:35.055Z,12.70
2017-10-08T08:10:02.579Z,12.80
2017-10-08T08:12:30.082Z,12.80
2017-10-08T08:14:57.597Z,12.80
2017-10-08T08:17:25.098Z,12.90
2017-10-08T08:19:52.595Z,12.90
2017-10-08T08:22:20.113Z,12.90
2017-10-08T08:24:47.617Z,13.00
2017-10-08T08:27:15.128Z,13.00
2017-10-08T08:29:42.630Z,13.10
2017-10-08T08:32:10.143Z,13.10
2017-10-08T08:34:37.645Z,13.20
2017-10-08T08:37:05.192Z,13.20
2017-10-08T08:39:33.466Z,13.30
2017-10-08T08:42:00.992Z,13.30
2017-10-08T08:44:31.535Z,13.30
2017-10-08T08:46:59.102Z,13.40
2017-10-08T08:49:26.613Z,13.40
2017-10-08T08:51:54.125Z,13.50
2017-10-08T08:54:22.466Z,13.50
2017-10-08T08:56:49.981Z,13.50
2017-10-08T08:59:17.505Z,13.60
2017-10-08T09:01:45.026Z,13.60
2017-10-08T09:04:12.550Z,13.70
2017-10-08T09:06:40.839Z,13.80
2017-10-08T09:09:08.349Z,13.70
2017-10-08T09:11:35.873Z,13.80
2017-10-08T09:14:03.381Z,13.80
2017-10-08T09:16:31.033Z,13.80
2017-10-08T09:18:58.589Z,13.90
2017-10-08T09:21:26.131Z,13.90
2017-10-08T09:23:54.398Z,13.90
2017-10-08T09:26:22.672Z,14.00
2017-10-08T09:28:50.212Z,13.90
2017-10-08T09:31:17.710Z,14.00
2017-10-08T09:33:45.240Z,14.00
2017-10-08T09:36:12.976Z,14.00
2017-10-08T09:38:40.526Z,14.00
2017-10-08T09:41:08.030Z,14.10
2017-10-08T09:43:36.345Z,14.10
2017-10-08T09:46:03.883Z,14.10
2017-10-08T09:48:32.180Z,14.20
2017-10-08T09:50:59.725Z,14.10
2017-10-08T09:53:28.033Z,14.20
2017-10-08T09:55:55.546Z,14.20
2017-10-08T09:58:23.870Z,14.30
2017-10-08T10:00:51.452Z,14.30
2017-10-08T10:03:18.994Z,14.40
2017-10-08T10:05:46.519Z,14.40
2017-10-08T10:08:14.795Z,14.50
2017-10-08T10:10:42.314Z,14.50
2017-10-08T10:13:09.844Z,14.60
2017-10-08T10:15:37.354Z,14.60
2017-10-08T10:18:05.642Z,14.70
2017-10-08T10:20:33.161Z,14.60
2017-10-08T10:23:00.735Z,14.70
2017-10-08T10:25:28.282Z,14.70
2017-10-08T10:27:55.786Z,14.70
2017-10-08T10:30:24.063Z,14.60
2017-10-08T10:32:52.356Z,14.60
2017-10-08T10:35:19.881Z,14.60
2017-10-08T10:37:47.391Z,14.70
2017-10-08T10:40:14.919Z,14.70
2017-10-08T10:42:43.192Z,14.80
2017-10-08T10:45:11.473Z,14.80
2017-10-08T10:47:39.025Z,14.80
2017-10-08T10:50:07.306Z,14.90
2017-10-08T10:52:35.584Z,14.90
2017-10-08T10:55:03.886Z,14.90
2017-10-08T10:57:31.381Z,14.90
2017-10-08T10:59:58.906Z,14.90
2017-10-08T11:02:26.470Z,14.90
2017-10-08T11:04:54.025Z,14.90
2017-10-08T11:07:21.541Z,15.00
2017-10-08T11:09:49.066Z,15.00
2017-10-08T11:12:16.569Z,15.00
2017-10-08T11:14:44.863Z,15.10
2017-10-08T11:17:12.402Z,15.00
2017-10-08T11:19:40.700Z,15.10
2017-10-08T11:22:08.222Z,15.10
2017-10-08T11:24:35.763Z,15.00
2017-10-08T11:27:03.266Z,15.00
2017-10-08T11:29:31.561Z,15.00
2017-10-08T11:31:59.089Z,15.00
2017-10-08T11:34:27.362Z,15.00
2017-10-08T11:36:55.654Z,15.00
2017-10-08T11:39:23.162Z,15.00
2017-10-08T11:41:50.693Z,15.00
2017-10-08T11:44:18.193Z,15.00
2017-10-08T11:46:45.754Z,15.00
2017-10-08T11:49:13.245Z,15.00
2017-10-08T11:51:40.769Z,15.00
2017-10-08T11:54:08.837Z,15.10
2017-10-08T11:56:36.356Z,15.10
2017-10-08T11:59:03.862Z,15.10
2017-10-08T12:01:31.383Z,15.10
2017-10-08T12:03:58.904Z,15.10
2017-10-08T12:06:27.208Z,15.20
2017-10-08T12:08:54.710Z,15.10
2017-10-08T12:11:22.230Z,15.20
2017-10-08T12:13:49.734Z,15.20
2017-10-08T12:16:17.258Z,15.30
2017-10-08T12:18:44.765Z,15.30
2017-10-08T12:21:12.281Z,15.30
2017-10-08T12:26:35.249Z,15.40
2017-10-08T12:29:04.012Z,15.40
2017-10-08T12:31:32.607Z,15.30
2017-10-08T12:34:02.188Z,15.30
2017-10-08T12:36:29.733Z,15.30
2017-10-08T12:39:01.069Z,15.30
2017-10-08T12:41:30.586Z,15.30
2017-10-08T12:43:58.203Z,15.30
2017-10-08T12:49:23.672Z,15.00
2017-10-08T12:51:52.033Z,15.30
2017-10-08T12:54:20.344Z,15.30
2017-10-08T12:56:54.729Z,15.30
2017-10-08T12:59:31.597Z,15.30
2017-10-08T13:01:59.905Z,15.30
2017-10-08T13:04:27.452Z,15.30
2017-10-08T13:06:58.317Z,15.40
2017-10-08T13:09:25.864Z,15.40
2017-10-08T13:11:53.397Z,15.40
2017-10-08T13:14:22.753Z,15.50
2017-10-08T13:17:03.613Z,15.50
2017-10-08T13:19:33.138Z,15.50
2017-10-08T13:22:17.637Z,15.60
2017-10-08T13:24:51.202Z,15.60
2017-10-08T13:27:18.820Z,15.60
2017-10-08T13:29:46.388Z,15.70
2017-10-08T13:32:13.932Z,15.70
2017-10-08T13:34:42.261Z,15.80
2017-10-08T13:37:09.805Z,15.80
2017-10-08T13:39:39.007Z,15.80
2017-10-08T13:42:18.085Z,15.80
2017-10-08T13:44:45.676Z,15.80
2017-10-08T13:47:13.557Z,15.90
2017-10-08T13:49:41.892Z,15.90
2017-10-08T13:52:09.449Z,15.90
2017-10-08T13:54:37.153Z,15.90
2017-10-08T13:59:57.571Z,15.90
2017-10-08T14:02:25.153Z,15.90
2017-10-08T14:04:52.721Z,15.90
2017-10-08T14:07:20.285Z,15.90
2017-10-08T14:10:05.008Z,15.90
2017-10-08T14:12:32.549Z,15.90
2017-10-08T14:15:06.905Z,15.90
2017-10-08T14:17:34.445Z,15.90
2017-10-08T14:20:07.901Z,15.90
2017-10-08T14:22:35.443Z,15.90
2017-10-08T14:25:03.005Z,15.90
2017-10-08T14:27:30.542Z,15.90
2017-10-08T14:29:58.088Z,15.90
2017-10-08T14:32:25.617Z,16.00
2017-10-08T14:34:53.236Z,16.00
2017-10-08T14:37:20.852Z,16.00
2017-10-08T14:39:56.133Z,16.00
2017-10-08T14:42:23.681Z,15.90
2017-10-08T14:44:51.232Z,16.00
2017-10-08T14:47:23.590Z,16.00
2017-10-08T14:49:51.173Z,16.00
2017-10-08T14:52:18.709Z,16.00
2017-10-08T14:54:50.225Z,16.00
2017-10-08T14:57:17.802Z,16.00
2017-10-08T14:59:45.410Z,16.00
2017-10-08T15:02:22.611Z,16.00
2017-10-08T15:04:50.151Z,16.00
2017-10-08T15:07:17.653Z,16.00
2017-10-08T15:09:45.154Z,16.00
2017-10-08T15:12:12.671Z,16.00
2017-10-08T15:14:40.195Z,16.00
2017-10-08T15:17:07.710Z,16.00
2017-10-08T15:19:35.970Z,15.90
2017-10-08T15:22:03.487Z,15.90
2017-10-08T15:24:30.994Z,15.90
2017-10-08T15:26:58.511Z,15.90
2017-10-08T15:29:26.005Z,15.90
2017-10-08T15:31:53.516Z,15.80
2017-10-08T15:34:21.020Z,15.80
2017-10-08T15:36:48.531Z,15.80
2017-10-08T15:39:16.037Z,15.80
2017-10-08T15:41:43.554Z,15.80
2017-10-08T15:44:11.053Z,15.70
2017-10-08T15:46:38.570Z,15.70
2017-10-08T15:49:06.084Z,15.60
2017-10-08T15:51:33.603Z,15.60
2017-10-08T15:54:01.100Z,15.60
2017-10-08T15:56:28.614Z,15.50
2017-10-08T15:58:56.106Z,15.50
2017-10-08T16:01:23.643Z,15.50
2017-10-08T16:03:51.146Z,15.40
2017-10-08T16:06:18.662Z,15.40
2017-10-08T16:08:46.181Z,15.40
2017-10-08T16:11:13.697Z,15.40
2017-10-08T16:13:41.220Z,15.30
2017-10-08T16:16:08.751Z,15.30
2017-10-08T16:18:37.034Z,15.20
2017-10-08T16:21:05.336Z,15.20
2017-10-08T16:23:32.842Z,15.20
2017-10-08T16:26:00.349Z,15.20
2017-10-08T16:28:27.886Z,15.20
2017-10-08T16:30:55.442Z,15.20
2017-10-08T16:33:22.978Z,15.10
2017-10-08T16:35:50.593Z,15.10
2017-10-08T16:38:18.123Z,15.10
2017-10-08T16:40:46.395Z,15.00
2017-10-08T16:43:14.679Z,15.00
2017-10-08T16:45:42.946Z,15.00
2017-10-08T16:48:11.231Z,15.00
2017-10-08T16:50:39.510Z,14.90
2017-10-08T16:53:07.034Z,14.90
2017-10-08T16:55:34.535Z,14.90
2017-10-08T16:58:02.054Z,14.90
2017-10-08T17:00:29.563Z,14.80
2017-10-08T17:02:57.098Z,14.80
2017-10-08T17:05:24.633Z,14.80
2017-10-08T17:07:52.176Z,14.80
2017-10-08T17:10:19.783Z,14.70
2017-10-08T17:12:48.054Z,14.70
2017-10-08T17:15:16.342Z,14.70
2017-10-08T17:17:43.876Z,14.70
2017-10-08T17:20:11.398Z,14.70
2017-10-08T17:22:38.910Z,14.70
2017-10-08T17:25:07.212Z,14.60
2017-10-08T17:27:34.714Z,14.60
2017-10-08T17:30:02.235Z,14.60
2017-10-08T17:32:29.738Z,14.60
2017-10-08T17:34:57.255Z,14.60
2017-10-08T17:37:24.777Z,14.50
2017-10-08T17:39:53.078Z,14.50
2017-10-08T17:42:20.583Z,14.50
2017-10-08T17:44:48.115Z,14.50
2017-10-08T17:47:15.622Z,14.50
2017-10-08T17:49:43.138Z,14.40
2017-10-08T17:52:10.642Z,14.40
2017-10-08T17:54:38.926Z,14.40
2017-10-08T17:57:07.199Z,14.40
2017-10-08T17:59:34.730Z,14.30
2017-10-08T18:02:02.226Z,14.30
2017-10-08T18:04:30.505Z,14.30
2017-10-08T18:06:58.774Z,14.30
2017-10-08T18:09:27.074Z,14.30
2017-10-08T18:11:54.682Z,14.20
2017-10-08T18:14:22.179Z,14.20
2017-10-08T18:16:50.464Z,14.20
2017-10-08T18:19:18.736Z,14.20
2017-10-08T18:21:46.275Z,14.20
2017-10-08T18:24:13.783Z,14.10
2017-10-08T18:26:41.294Z,14.10
2017-10-08T18:29:11.863Z,14.10
2017-10-08T18:31:39.495Z,14.10
2017-10-08T18:34:07.770Z,14.10
2017-10-08T18:36:36.043Z,14.10
2017-10-08T18:39:04.315Z,14.10
2017-10-08T18:41:31.842Z,14.10
2017-10-08T18:43:59.431Z,14.00
2017-10-08T18:46:26.964Z,14.00
2017-10-08T18:48:54.462Z,14.00
2017-10-08T18:51:22.759Z,14.00
2017-10-08T18:53:50.267Z,14.00
2017-10-08T18:56:17.775Z,14.00
2017-10-08T18:58:46.061Z,14.00
2017-10-08T19:01:13.603Z,14.00
2017-10-08T19:03:41.122Z,14.00
2017-10-08T19:06:08.642Z,14.00
2017-10-08T19:08:36.164Z,14.00
2017-10-08T19:11:03.698Z,13.90
2017-10-08T19:13:31.222Z,13.90
2017-10-08T19:15:58.741Z,13.90
2017-10-08T19:18:26.281Z,13.90
2017-10-08T19:20:53.786Z,13.90
2017-10-08T19:23:22.129Z,13.90
2017-10-08T19:25:49.658Z,13.90
2017-10-08T19:28:17.183Z,13.90
2017-10-08T19:30:45.464Z,13.90
2017-10-08T19:33:13.014Z,13.80
2017-10-08T19:35:41.285Z,13.80
2017-10-08T19:38:09.572Z,13.80
2017-10-08T19:40:37.844Z,13.80
2017-10-08T19:43:06.176Z,13.80
2017-10-08T19:45:33.683Z,13.80
2017-10-08T19:48:01.990Z,13.80
2017-10-08T19:50:29.486Z,13.80
2017-10-08T19:52:57.001Z,13.80
2017-10-08T19:55:24.536Z,13.80
2017-10-08T19:57:52.806Z,13.70
2017-10-08T20:00:21.109Z,13.70
2017-10-08T20:02:48.622Z,13.70
2017-10-08T20:05:16.145Z,13.80
2017-10-08T20:07:43.659Z,13.70
2017-10-08T20:10:11.183Z,13.70
2017-10-08T20:12:38.692Z,13.70
2017-10-08T20:15:06.773Z,13.70
2017-10-08T20:17:34.308Z,13.70
2017-10-08T20:20:01.829Z,13.70
2017-10-08T20:22:29.582Z,13.70
2017-10-08T20:24:57.136Z,13.70
2017-10-08T20:27:24.685Z,13.70
2017-10-08T20:29:53.064Z,13.70
2017-10-08T20:32:20.576Z,13.70
2017-10-08T20:34:48.264Z,13.70
2017-10-08T20:37:16.602Z,13.70
2017-10-08T20:39:44.130Z,13.70
2017-10-08T20:42:11.638Z,13.70
2017-10-08T20:44:40.139Z,13.70
2017-10-08T20:47:08.406Z,13.60
2017-10-08T20:49:36.300Z,13.70
2017-10-08T20:52:03.820Z,13.70
2017-10-08T20:54:31.522Z,13.70
2017-10-08T20:56:59.287Z,13.70
2017-10-08T20:59:26.809Z,13.70
2017-10-08T21:01:54.511Z,13.70
2017-10-08T21:04:23.031Z,13.60
2017-10-08T21:06:50.547Z,13.70
2017-10-08T21:09:18.862Z,13.60
2017-10-08T21:11:46.419Z,13.70
2017-10-08T21:14:13.929Z,13.60
2017-10-08T21:16:42.223Z,13.70
2017-10-08T21:19:09.722Z,13.70
2017-10-08T21:21:37.234Z,13.60
2017-10-08T21:24:05.503Z,13.60
2017-10-08T21:26:33.798Z,13.70
2017-10-08T21:29:01.296Z,13.60
2017-10-08T21:31:28.820Z,13.60
2017-10-08T21:33:56.328Z,13.60
2017-10-08T21:36:24.831Z,13.60
2017-10-08T21:38:52.331Z,13.60
2017-10-08T21:41:19.847Z,13.60
2017-10-08T21:43:47.355Z,13.60
2017-10-08T21:46:14.882Z,13.60
2017-10-08T21:48:43.158Z,13.60
2017-10-08T21:51:11.447Z,13.60
2017-10-08T21:53:38.947Z,13.60
2017-10-08T21:56:06.498Z,13.60
2017-10-08T21:58:34.005Z,13.60
2017-10-08T22:01:02.271Z,13.60
2017-10-08T22:03:29.795Z,13.60
2017-10-08T22:05:57.299Z,13.60
2017-10-08T22:08:25.622Z,13.60
2017-10-08T22:10:53.119Z,13.60
2017-10-08T22:13:20.645Z,13.60
2017-10-08T22:15:48.146Z,13.60
2017-10-08T22:18:15.660Z,13.60
2017-10-08T22:20:43.163Z,13.60
2017-10-08T22:23:10.684Z,13.60
2017-10-08T22:25:38.178Z,13.60
2017-10-08T22:28:05.704Z,13.60
2017-10-08T22:30:33.214Z,13.60
2017-10-08T22:33:01.497Z,13.60
2017-10-08T22:35:29.772Z,13.60
2017-10-08T22:37:58.058Z,13.60
2017-10-08T22:40:25.555Z,13.60
2017-10-08T22:42:53.080Z,13.70
2017-10-08T22:45:20.578Z,13.60
2017-10-08T22:47:48.128Z,13.60
2017-10-08T22:50:15.628Z,13.60
2017-10-08T22:52:43.158Z,13.60
2017-10-08T22:55:10.662Z,13.60
2017-10-08T22:57:38.958Z,13.60
2017-10-08T23:00:06.467Z,13.60
2017-10-08T23:02:33.992Z,13.60
2017-10-08T23:05:01.498Z,13.60
2017-10-08T23:07:28.999Z,13.60
2017-10-08T23:09:56.522Z,13.60
2017-10-08T23:12:24.794Z,13.60
2017-10-08T23:14:52.321Z,13.60
2017-10-08T23:17:19.830Z,13.50
2017-10-08T23:19:48.115Z,13.50
2017-10-08T23:22:15.614Z,13.50
2017-10-08T23:24:43.135Z,13.50
2017-10-08T23:27:10.638Z,13.50
2017-10-08T23:29:38.205Z,13.50
2017-10-08T23:32:05.731Z,13.50
2017-10-08T23:34:33.264Z,13.50
2017-10-08T23:37:01.595Z,13.50
2017-10-08T23:39:29.128Z,13.50
2017-10-08T23:41:56.647Z,13.50
2017-10-08T23:44:24.939Z,13.50
2017-10-08T23:46:52.447Z,13.40
2017-10-08T23:49:19.970Z,13.40
2017-10-08T23:51:47.491Z,13.40
2017-10-08T23:54:15.016Z,13.50
2017-10-08T23:56:42.523Z,13.40
2017-10-08T23:59:10.044Z,13.40
